• Join FlightAware (Why Join?)
  • Login
  • US Flag 
12:35PM EST


 

Airport Tracker/Info


-or-


 

Live Flight TrackerFlight Track Log ✈ N75ZM ✈ 09-Oct-2013 ✈ KCHS - KPDK

Flight Track Log - Related Links

Times and Time Zones

All times are in EDT time to prevent confusion due to time zone crossing. See the N75ZM flight status page for this flight to view local times or setup timezone preferences in your user account.

Time Position Orientation Groundspeed Altitude Reporting Facility
EDT Latitude Longitude Course Direction KTS MPH feet Rate Location/Type
05:18PM 32.9709 -80.3322 286° West  Level Estimated
05:19PM 32.9821 -80.3811 285° West  Level FlightAware Approximate
05:20PM 32.9933 -80.4301 285° West  Level FlightAware Approximate
05:21PM 33.0045 -80.4790 285° West  Level FlightAware Approximate
05:21PM 32.9964 -80.4283 286° West 129 148 8,100  Level Jacksonville Center
05:22PM 33.0157 -80.5279 285° West  Level FlightAware Approximate
05:22PM 33.0078 -80.4750 286° West 134 154 8,100  Level Jacksonville Center
05:23PM 33.0269 -80.5769 285° West  Level FlightAware Approximate
05:23PM 33.0189 -80.5217 286° West 144 166 8,100  Level Jacksonville Center
05:24PM 33.0380 -80.6259 285° West  Level FlightAware Approximate
05:24PM 33.0325 -80.5708 288° West 144 166 8,100  Level Jacksonville Center
05:25PM 33.0499 -80.6746 286° West  Level Estimated
05:25PM 33.0436 -80.6178 286° West 149 171 8,100  Level Jacksonville Center
05:26PM 33.0614 -80.7235 286° West  Level FlightAware Approximate
05:26PM 33.0550 -80.6669 285° West 149 171 8,100  Level Jacksonville Center
05:27PM 33.0664 -80.7164 285° West 149 171 8,100  Level Jacksonville Center
05:28PM 33.0775 -80.7631 286° West 154 177 8,100  Level Jacksonville Center
05:29PM 33.0889 -80.8125 285° West 154 177 8,100  Level Jacksonville Center
05:30PM 33.1000 -80.8617 285° West 154 177 8,100  Level Jacksonville Center
05:31PM 33.1133 -80.9086 289° West 149 171 8,100  Level Jacksonville Center
05:32PM 33.1225 -80.9581 282° West 149 171 8,100  Level Jacksonville Center
05:33PM 33.1356 -81.0022 289° West 149 171 8,100  Level Jacksonville Center
05:34PM 33.1467 -81.0492 286° West 144 166 8,100  Level Jacksonville Center
05:35PM 33.1578 -81.0961 286° West 144 166 8,100  Level Jacksonville Center
05:36PM 33.1689 -81.1431 286° West 144 166 8,100  Level Jacksonville Center
05:37PM 33.1800 -81.1900 286° West 144 166 8,100  Level Jacksonville Center
05:38PM 33.1911 -81.2369 286° West 144 166 8,100  Level Jacksonville Center
05:40PM 33.2020 -81.2960 282° West  Level FlightAware Approximate
05:47PM 33.2699 -81.6249 285° West  Level FlightAware Approximate
05:48PM 33.2806 -81.6716 285° West  Level FlightAware Approximate
05:49PM 33.2925 -81.7191 287° West  Level FlightAware Approximate
05:50PM 33.3044 -81.7665 287° West  Level FlightAware Approximate
05:51PM 33.3162 -81.8140 287° West  Level FlightAware Approximate
05:52PM 33.3280 -81.8615 287° West  Level FlightAware Approximate
05:53PM 33.3399 -81.9091 287° West  Level FlightAware Approximate
05:54PM 33.3552 -81.9530 335° Northwest  Level FlightAware Approximate
05:55PM 33.3926 -81.9743 335° Northwest  Level FlightAware Approximate
05:56PM 33.4109 -82.0185 296° West  Level FlightAware Approximate
05:57PM 33.4291 -82.0628 296° West  Level FlightAware Approximate
05:58PM 33.4473 -82.1070 296° West  Level FlightAware Approximate
05:59PM 33.4656 -82.1513 296° West  Level FlightAware Approximate
06:00PM 33.4838 -82.1956 296° West  Level FlightAware Approximate
06:01PM 33.5019 -82.2400 296° West  Level FlightAware Approximate
06:02PM 33.5201 -82.2843 296° West  Level FlightAware Approximate
06:03PM 33.5383 -82.3287 296° West  Level FlightAware Approximate
06:04PM 33.5564 -82.3731 296° West  Level FlightAware Approximate
06:05PM 33.5745 -82.4175 296° West  Level FlightAware Approximate
06:06PM 33.5926 -82.4619 296° West  Level FlightAware Approximate
06:07PM 33.6107 -82.5064 296° West  Level FlightAware Approximate
06:08PM 33.6288 -82.5508 296° West  Level FlightAware Approximate
06:09PM 33.6469 -82.5953 296° West  Level FlightAware Approximate
06:10PM 33.6649 -82.6398 296° West  Level FlightAware Approximate
06:11PM 33.6829 -82.6843 296° West  Level FlightAware Approximate
06:11PM 33.7000 -82.7000 295° West 148 170 8,200  Level Atlanta TRACON
06:12PM 33.7010 -82.7289 296° West  Level FlightAware Approximate
06:12PM 33.7167 -82.7500 292° West 146 168 8,200  Level Atlanta TRACON
06:13PM 33.7189 -82.7734 296° West  Level FlightAware Approximate
06:13PM 33.7333 -82.8000 292° West 148 170 8,100  Level Atlanta TRACON
06:14PM 33.7369 -82.8180 296° West  Level FlightAware Approximate
06:14PM 33.7667 -82.8500 309° West 150 173 8,100  Level Atlanta TRACON
06:15PM 33.7549 -82.8626 296° West  Level FlightAware Approximate
06:15PM 33.7667 -82.8833 270° West 147 169 8,100  Level Atlanta TRACON
06:16PM 33.7728 -82.9072 296° West  Level FlightAware Approximate
06:16PM 33.8000 -82.9333 309° West 147 169 8,100  Level Atlanta TRACON
06:17PM 33.7907 -82.9520 295° West  Level FlightAware Approximate
06:17PM 33.8167 -82.9833 292° West 148 170 8,100  Level Atlanta TRACON
06:18PM 33.8167 -83.0333 270° West 164 189 7,600 -540 Descending Atlanta TRACON
06:19PM 33.8167 -83.0833 270° West 170 196 7,000 -540 Descending Atlanta TRACON
06:20PM 33.8167 -83.1500 270° West 173 199 6,600 -480 Descending Atlanta TRACON
06:21PM 33.8167 -83.2000 270° West 172 198 6,100 -300 Descending Atlanta TRACON
06:22PM 33.8167 -83.2500 270° West 164 189 6,100  Level Atlanta TRACON
06:23PM 33.8333 -83.3000 292° West 163 188 6,100  Level Atlanta TRACON
06:24PM 33.8333 -83.3500 270° West 159 183 6,100  Level Atlanta TRACON
06:25PM 33.8333 -83.4000 270° West 162 186 6,100  Level Atlanta TRACON
06:26PM 33.8333 -83.4500 270° West 159 183 6,100  Level Atlanta TRACON
06:27PM 33.8333 -83.5167 270° West 161 185 6,100  Level Atlanta TRACON
06:28PM 33.8333 -83.5667 270° West 163 188 6,100  Level Atlanta TRACON
06:29PM 33.8500 -83.6333 287° West 162 186 6,100  Level Atlanta TRACON
06:30PM 33.8500 -83.6833 270° West 164 189 6,100  Level Atlanta TRACON
06:31PM 33.8500 -83.7333 270° West 162 186 6,100 -300 Level Atlanta TRACON
06:32PM 33.8500 -83.7833 270° West 177 204 5,600 -480 Descending Atlanta TRACON
06:33PM 33.8500 -83.8500 270° West 182 209 5,200 -540 Descending Atlanta TRACON
06:34PM 33.8500 -83.9167 270° West 189 217 4,600 -660 Descending Atlanta TRACON
06:35PM 33.8667 -83.9667 292° West 191 220 3,900 -660 Descending Atlanta TRACON
06:36PM 33.8667 -84.0333 270° West 187 215 3,300 -420 Descending Atlanta TRACON
06:37PM 33.8667 -84.1000 270° West 169 194 3,100 -180 Descending Atlanta TRACON
06:38PM 33.8667 -84.1500 270° West 170 196 3,000 -300 Descending Atlanta TRACON
06:39PM 33.8667 -84.2167 270° West 168 193 2,500 -420 Descending Atlanta TRACON
06:40PM 33.8500 -84.2667 248° West 160 184 2,200 -360 Descending Atlanta TRACON
06:41PM 33.8500 -84.3000 270° West 109 125 1,900 -300 Descending Atlanta TRACON
06:43PM 33.8667 -84.3000 273° West  Level FlightAware Approximate
06:50PM 33.8756 -84.3020 273° West  Level Estimated